RYR288C LHBP-LIRA
Flight info
| Callsign | RYR288C |
|---|---|
| Flight time | 1h 19m |
| Altitude | 38000 |
| Route | DUZLA DCT OKORA DCT VEBAL DCT NOVLO DCT UNIPA DCT SOMIG DCT VELUG/N0441F390 DCT ESODU DCT ASPIR DCT MOPUV |
| Aircraft | B738/M-SDE2E3FGHIRWXY/LB1 |
Departure
| Time | 2026-05-04 11:27 |
|---|---|
| Airport | Budapest Liszt Ferenc International Airport (LHBP) |
Arrival
| Time | 2026-05-04 12:47 |
|---|---|
| Airport | Ciampino–G. B. Pastine International Airport (LIRA) |
| Time | Latitude | Longitude | Altitude | Speed | Heading |
|---|---|---|---|---|---|
| 2026-05-04 11:12 | 47.43397 | 19.26660 | 456 ft | 0 kts | 222° |
| 2026-05-04 11:20 | 47.43398 | 19.26661 | 457 ft | 1 kts | 222° |
| 2026-05-04 11:20 | 47.43416 | 19.26685 | 456 ft | 4 kts | 222° |
| 2026-05-04 11:22 | 47.43399 | 19.26779 | 455 ft | 0 kts | 312° |
| 2026-05-04 11:24 | 47.43611 | 19.26436 | 457 ft | 21 kts | 312° |
| 2026-05-04 11:25 | 47.43689 | 19.26353 | 457 ft | 13 kts | 2° |
| 2026-05-04 11:25 | 47.43767 | 19.26418 | 457 ft | 13 kts | 6° |
| 2026-05-04 11:25 | 47.43844 | 19.26328 | 457 ft | 19 kts | 313° |
| 2026-05-04 11:26 | 47.44018 | 19.26292 | 460 ft | 15 kts | 42° |
| 2026-05-04 11:27 | 47.41338 | 19.31696 | 2313 ft | 173 kts | 121° |
| 2026-05-04 11:28 | 47.40770 | 19.33351 | 2915 ft | 194 kts | 124° |
| 2026-05-04 11:28 | 47.40056 | 19.35204 | 3219 ft | 221 kts | 123° |
| 2026-05-04 11:28 | 47.39258 | 19.37210 | 3582 ft | 236 kts | 123° |
| 2026-05-04 11:28 | 47.38380 | 19.39376 | 4011 ft | 252 kts | 132° |
| 2026-05-04 11:29 | 47.36939 | 19.40765 | 4545 ft | 256 kts | 166° |
| 2026-05-04 11:29 | 47.35181 | 19.40908 | 5444 ft | 254 kts | 192° |
| 2026-05-04 11:29 | 47.33523 | 19.39878 | 6255 ft | 261 kts | 217° |
| 2026-05-04 11:29 | 47.32206 | 19.38029 | 7098 ft | 265 kts | 226° |
| 2026-05-04 11:31 | 47.22700 | 19.22502 | 11418 ft | 337 kts | 226° |
| 2026-05-04 11:33 | 47.11176 | 19.03899 | 16585 ft | 368 kts | 227° |
| 2026-05-04 11:33 | 47.09442 | 19.01115 | 17294 ft | 373 kts | 227° |
| 2026-05-04 11:33 | 47.07682 | 18.98293 | 18023 ft | 377 kts | 227° |
| 2026-05-04 11:34 | 47.05896 | 18.95432 | 18686 ft | 382 kts | 227° |
| 2026-05-04 11:34 | 47.04095 | 18.92551 | 19322 ft | 385 kts | 227° |
| 2026-05-04 11:34 | 47.02275 | 18.89642 | 19962 ft | 389 kts | 227° |
| 2026-05-04 11:34 | 47.00437 | 18.86708 | 20612 ft | 391 kts | 227° |
| 2026-05-04 11:35 | 46.98593 | 18.83766 | 21258 ft | 394 kts | 227° |
| 2026-05-04 11:35 | 46.96728 | 18.80796 | 21874 ft | 398 kts | 227° |
| 2026-05-04 11:35 | 46.94867 | 18.77834 | 22448 ft | 402 kts | 228° |
| 2026-05-04 11:35 | 46.92966 | 18.74812 | 23068 ft | 405 kts | 228° |
| 2026-05-04 11:36 | 46.91050 | 18.71771 | 23632 ft | 409 kts | 228° |
| 2026-05-04 11:36 | 46.89115 | 18.68701 | 24124 ft | 412 kts | 228° |
| 2026-05-04 11:36 | 46.87163 | 18.65610 | 24584 ft | 415 kts | 228° |
| 2026-05-04 11:36 | 46.85197 | 18.62500 | 25053 ft | 418 kts | 228° |
| 2026-05-04 11:37 | 46.83213 | 18.59364 | 25487 ft | 422 kts | 229° |
| 2026-05-04 11:37 | 46.81214 | 18.56209 | 25932 ft | 425 kts | 229° |
| 2026-05-04 11:37 | 46.79200 | 18.53034 | 26387 ft | 428 kts | 229° |
| 2026-05-04 11:37 | 46.77162 | 18.49825 | 26802 ft | 431 kts | 229° |
| 2026-05-04 11:38 | 46.75117 | 18.46609 | 27219 ft | 434 kts | 229° |
| 2026-05-04 11:38 | 46.73058 | 18.43375 | 27643 ft | 437 kts | 229° |
| 2026-05-04 11:38 | 46.70980 | 18.40115 | 28064 ft | 439 kts | 229° |
| 2026-05-04 11:38 | 46.68894 | 18.36847 | 28479 ft | 442 kts | 229° |
| 2026-05-04 11:39 | 46.66793 | 18.33557 | 28882 ft | 445 kts | 229° |
| 2026-05-04 11:39 | 46.64680 | 18.30252 | 29271 ft | 447 kts | 229° |
| 2026-05-04 11:40 | 46.51767 | 18.10156 | 31358 ft | 457 kts | 229° |
| 2026-05-04 11:41 | 46.49593 | 18.06789 | 31847 ft | 455 kts | 229° |
| 2026-05-04 11:41 | 46.47434 | 18.03450 | 32306 ft | 452 kts | 229° |
| 2026-05-04 11:41 | 46.45285 | 18.00128 | 32706 ft | 452 kts | 229° |
| 2026-05-04 11:41 | 46.43132 | 17.96804 | 33086 ft | 451 kts | 229° |
| 2026-05-04 11:42 | 46.40986 | 17.93495 | 33511 ft | 450 kts | 229° |
| 2026-05-04 11:42 | 46.39542 | 17.91270 | 33778 ft | 449 kts | 229° |
| 2026-05-04 11:42 | 46.37403 | 17.87979 | 34166 ft | 448 kts | 229° |
| 2026-05-04 11:42 | 46.35295 | 17.84740 | 34481 ft | 447 kts | 229° |
| 2026-05-04 11:43 | 46.33163 | 17.81466 | 34796 ft | 446 kts | 229° |
| 2026-05-04 11:43 | 46.31037 | 17.78208 | 35131 ft | 445 kts | 229° |
| 2026-05-04 11:43 | 46.28916 | 17.74959 | 35471 ft | 444 kts | 229° |
| 2026-05-04 11:43 | 46.26795 | 17.71716 | 35784 ft | 443 kts | 229° |
| 2026-05-04 11:44 | 46.24679 | 17.68483 | 36094 ft | 442 kts | 229° |
| 2026-05-04 11:44 | 46.22566 | 17.65258 | 36425 ft | 441 kts | 229° |
| 2026-05-04 11:44 | 46.20457 | 17.62044 | 36712 ft | 441 kts | 229° |
| 2026-05-04 11:44 | 46.18348 | 17.58834 | 37011 ft | 440 kts | 229° |
| 2026-05-04 11:45 | 46.16244 | 17.55633 | 37290 ft | 439 kts | 229° |
| 2026-05-04 11:45 | 46.14140 | 17.52438 | 37552 ft | 439 kts | 229° |
| 2026-05-04 11:45 | 46.12039 | 17.49251 | 37834 ft | 438 kts | 229° |
| 2026-05-04 11:45 | 46.09935 | 17.46063 | 38080 ft | 438 kts | 229° |
| 2026-05-04 11:46 | 46.07826 | 17.42869 | 38077 ft | 442 kts | 229° |
| 2026-05-04 11:46 | 46.03607 | 17.36494 | 38093 ft | 442 kts | 228° |
| 2026-05-04 11:47 | 45.99075 | 17.30635 | 38106 ft | 439 kts | 214° |
| 2026-05-04 11:47 | 45.93514 | 17.26962 | 38110 ft | 442 kts | 199° |
| 2026-05-04 11:48 | 45.87627 | 17.24354 | 38098 ft | 443 kts | 199° |
| 2026-05-04 11:48 | 45.81736 | 17.21759 | 38096 ft | 443 kts | 199° |
| 2026-05-04 11:49 | 45.75846 | 17.19111 | 38095 ft | 444 kts | 199° |
| 2026-05-04 11:49 | 45.69944 | 17.16436 | 38100 ft | 445 kts | 199° |
| 2026-05-04 11:50 | 45.64029 | 17.13755 | 38104 ft | 446 kts | 199° |
| 2026-05-04 11:50 | 45.58101 | 17.11077 | 38101 ft | 448 kts | 199° |
| 2026-05-04 11:51 | 45.52156 | 17.08399 | 38098 ft | 449 kts | 199° |
| 2026-05-04 11:51 | 45.46192 | 17.05717 | 38099 ft | 450 kts | 199° |
| 2026-05-04 11:52 | 45.40214 | 17.03036 | 38089 ft | 450 kts | 199° |
| 2026-05-04 11:52 | 45.34242 | 17.00363 | 38092 ft | 450 kts | 199° |
| 2026-05-04 11:53 | 45.28308 | 16.97712 | 38093 ft | 450 kts | 199° |
| 2026-05-04 11:53 | 45.22337 | 16.95054 | 38103 ft | 449 kts | 199° |
| 2026-05-04 11:55 | 44.98253 | 16.85488 | 38087 ft | 449 kts | 198° |
| 2026-05-04 11:56 | 44.92234 | 16.83103 | 38079 ft | 449 kts | 198° |
| 2026-05-04 11:56 | 44.86216 | 16.80722 | 38094 ft | 448 kts | 198° |
| 2026-05-04 11:57 | 44.80246 | 16.78366 | 38087 ft | 448 kts | 198° |
| 2026-05-04 11:57 | 44.74235 | 16.76000 | 38094 ft | 449 kts | 198° |
| 2026-05-04 11:58 | 44.68213 | 16.73634 | 38080 ft | 449 kts | 198° |
| 2026-05-04 11:58 | 44.62187 | 16.71273 | 38093 ft | 450 kts | 198° |
| 2026-05-04 11:59 | 44.56157 | 16.68915 | 38088 ft | 450 kts | 198° |
| 2026-05-04 11:59 | 44.50113 | 16.66556 | 38099 ft | 450 kts | 198° |
| 2026-05-04 12:00 | 44.44073 | 16.64204 | 38093 ft | 450 kts | 198° |
| 2026-05-04 12:00 | 44.38037 | 16.61858 | 38096 ft | 450 kts | 198° |
| 2026-05-04 12:01 | 44.32001 | 16.59518 | 38103 ft | 450 kts | 198° |
| 2026-05-04 12:02 | 44.10901 | 16.51374 | 38113 ft | 450 kts | 198° |
| 2026-05-04 12:03 | 44.04861 | 16.49053 | 38118 ft | 450 kts | 198° |
| 2026-05-04 12:03 | 43.98864 | 16.46503 | 38114 ft | 449 kts | 202° |
| 2026-05-04 12:04 | 43.93014 | 16.43627 | 38124 ft | 449 kts | 203° |
| 2026-05-04 12:04 | 43.87123 | 16.40716 | 38125 ft | 448 kts | 202° |
| 2026-05-04 12:05 | 43.81231 | 16.37858 | 38131 ft | 448 kts | 202° |
| 2026-05-04 12:05 | 43.75336 | 16.35027 | 38141 ft | 447 kts | 202° |
| 2026-05-04 12:06 | 43.69481 | 16.32227 | 38150 ft | 446 kts | 202° |
| 2026-05-04 12:06 | 43.63612 | 16.29424 | 38151 ft | 446 kts | 202° |
| 2026-05-04 12:07 | 43.57778 | 16.26643 | 38136 ft | 445 kts | 202° |
| 2026-05-04 12:07 | 43.51926 | 16.23858 | 38128 ft | 444 kts | 202° |
| 2026-05-04 12:08 | 43.46074 | 16.21079 | 38123 ft | 443 kts | 202° |
| 2026-05-04 12:08 | 43.40244 | 16.18316 | 38131 ft | 442 kts | 202° |
| 2026-05-04 12:09 | 43.34421 | 16.15562 | 38132 ft | 441 kts | 202° |
| 2026-05-04 12:09 | 43.28613 | 16.12819 | 38130 ft | 441 kts | 202° |
| 2026-05-04 12:10 | 43.22836 | 16.10098 | 38134 ft | 440 kts | 202° |
| 2026-05-04 12:10 | 43.17481 | 16.06334 | 38151 ft | 428 kts | 225° |
| 2026-05-04 12:11 | 43.15468 | 16.03448 | 38118 ft | 422 kts | 237° |
| 2026-05-04 12:11 | 43.13943 | 16.00042 | 38163 ft | 417 kts | 244° |
| 2026-05-04 12:11 | 43.11145 | 15.93053 | 38133 ft | 418 kts | 244° |
| 2026-05-04 12:12 | 43.08326 | 15.86073 | 38125 ft | 419 kts | 244° |
| 2026-05-04 12:12 | 43.05462 | 15.79097 | 38127 ft | 420 kts | 243° |
| 2026-05-04 12:14 | 42.93916 | 15.51270 | 38118 ft | 422 kts | 243° |
| 2026-05-04 12:15 | 42.91011 | 15.44310 | 38128 ft | 421 kts | 243° |
| 2026-05-04 12:15 | 42.88171 | 15.37375 | 38125 ft | 420 kts | 245° |
| 2026-05-04 12:16 | 42.85478 | 15.30312 | 38115 ft | 418 kts | 245° |
| 2026-05-04 12:16 | 42.82829 | 15.23295 | 38121 ft | 417 kts | 245° |
| 2026-05-04 12:17 | 42.80155 | 15.16277 | 38111 ft | 416 kts | 245° |
| 2026-05-04 12:17 | 42.77467 | 15.09276 | 38121 ft | 416 kts | 245° |
| 2026-05-04 12:18 | 42.74793 | 15.02343 | 38117 ft | 415 kts | 245° |
| 2026-05-04 12:18 | 42.72106 | 14.95393 | 38112 ft | 414 kts | 245° |
| 2026-05-04 12:19 | 42.69423 | 14.88470 | 38107 ft | 410 kts | 245° |
| 2026-05-04 12:19 | 42.68110 | 14.85094 | 38088 ft | 396 kts | 245° |
| 2026-05-04 12:19 | 42.66856 | 14.81877 | 37977 ft | 385 kts | 245° |
| 2026-05-04 12:20 | 42.65614 | 14.78688 | 37615 ft | 381 kts | 245° |
| 2026-05-04 12:20 | 42.64359 | 14.75460 | 36611 ft | 392 kts | 245° |
| 2026-05-04 12:20 | 42.63060 | 14.72115 | 35529 ft | 407 kts | 244° |
| 2026-05-04 12:20 | 42.61727 | 14.68696 | 34944 ft | 409 kts | 244° |
| 2026-05-04 12:21 | 42.60396 | 14.65290 | 34446 ft | 407 kts | 244° |
| 2026-05-04 12:21 | 42.59072 | 14.61911 | 34029 ft | 404 kts | 244° |
| 2026-05-04 12:21 | 42.57754 | 14.58551 | 33557 ft | 402 kts | 244° |
| 2026-05-04 12:21 | 42.56447 | 14.55221 | 33122 ft | 398 kts | 244° |
| 2026-05-04 12:22 | 42.55149 | 14.51917 | 32712 ft | 395 kts | 244° |
| 2026-05-04 12:22 | 42.53860 | 14.48641 | 32311 ft | 391 kts | 244° |
| 2026-05-04 12:22 | 42.52584 | 14.45400 | 31920 ft | 388 kts | 243° |
| 2026-05-04 12:22 | 42.51315 | 14.42181 | 31544 ft | 385 kts | 243° |
| 2026-05-04 12:23 | 42.50059 | 14.38996 | 31155 ft | 382 kts | 243° |
| 2026-05-04 12:23 | 42.48807 | 14.35826 | 30773 ft | 380 kts | 243° |
| 2026-05-04 12:23 | 42.47564 | 14.32682 | 30399 ft | 377 kts | 243° |
| 2026-05-04 12:23 | 42.46343 | 14.29598 | 29997 ft | 375 kts | 243° |
| 2026-05-04 12:24 | 42.45112 | 14.26491 | 29564 ft | 372 kts | 243° |
| 2026-05-04 12:24 | 42.43893 | 14.23418 | 29169 ft | 369 kts | 243° |
| 2026-05-04 12:24 | 42.42682 | 14.20369 | 28752 ft | 366 kts | 243° |
| 2026-05-04 12:24 | 42.41480 | 14.17344 | 28376 ft | 363 kts | 243° |
| 2026-05-04 12:25 | 42.40286 | 14.14343 | 27976 ft | 361 kts | 243° |
| 2026-05-04 12:25 | 42.39101 | 14.11367 | 27601 ft | 358 kts | 243° |
| 2026-05-04 12:25 | 42.37925 | 14.08418 | 27205 ft | 356 kts | 243° |
| 2026-05-04 12:25 | 42.36753 | 14.05483 | 26834 ft | 353 kts | 243° |
| 2026-05-04 12:26 | 42.35590 | 14.02572 | 26454 ft | 351 kts | 243° |
| 2026-05-04 12:26 | 42.34435 | 13.99683 | 26085 ft | 348 kts | 243° |
| 2026-05-04 12:26 | 42.33286 | 13.96812 | 25715 ft | 346 kts | 243° |
| 2026-05-04 12:26 | 42.32143 | 13.93960 | 25342 ft | 344 kts | 243° |
| 2026-05-04 12:27 | 42.31005 | 13.91124 | 24961 ft | 342 kts | 243° |
| 2026-05-04 12:27 | 42.29877 | 13.88314 | 24601 ft | 340 kts | 243° |
| 2026-05-04 12:27 | 42.28751 | 13.85513 | 24243 ft | 338 kts | 243° |
| 2026-05-04 12:27 | 42.27632 | 13.82730 | 23886 ft | 336 kts | 243° |
| 2026-05-04 12:28 | 42.26516 | 13.79956 | 23499 ft | 335 kts | 243° |
| 2026-05-04 12:28 | 42.25404 | 13.77197 | 23079 ft | 334 kts | 243° |
| 2026-05-04 12:28 | 42.24314 | 13.74495 | 22705 ft | 331 kts | 243° |
| 2026-05-04 12:28 | 42.23201 | 13.71739 | 22334 ft | 329 kts | 242° |
| 2026-05-04 12:29 | 42.22124 | 13.69075 | 21991 ft | 326 kts | 242° |
| 2026-05-04 12:29 | 42.21041 | 13.66398 | 21633 ft | 324 kts | 242° |
| 2026-05-04 12:29 | 42.19963 | 13.63734 | 21282 ft | 322 kts | 242° |
| 2026-05-04 12:29 | 42.18894 | 13.61096 | 20948 ft | 319 kts | 242° |
| 2026-05-04 12:30 | 42.17831 | 13.58475 | 20599 ft | 317 kts | 242° |
| 2026-05-04 12:30 | 42.16775 | 13.55875 | 20249 ft | 315 kts | 242° |
| 2026-05-04 12:30 | 42.15726 | 13.53292 | 19930 ft | 314 kts | 242° |
| 2026-05-04 12:30 | 42.15033 | 13.51589 | 19688 ft | 313 kts | 242° |
| 2026-05-04 12:31 | 42.13988 | 13.49021 | 19359 ft | 311 kts | 242° |
| 2026-05-04 12:31 | 42.12950 | 13.46472 | 19031 ft | 309 kts | 242° |
| 2026-05-04 12:31 | 42.11916 | 13.43934 | 18710 ft | 308 kts | 241° |
| 2026-05-04 12:31 | 42.10884 | 13.41404 | 18347 ft | 307 kts | 241° |
| 2026-05-04 12:32 | 42.09857 | 13.38889 | 17981 ft | 306 kts | 241° |
| 2026-05-04 12:32 | 42.07819 | 13.33905 | 17273 ft | 302 kts | 241° |
| 2026-05-04 12:32 | 42.06808 | 13.31435 | 16939 ft | 300 kts | 241° |
| 2026-05-04 12:33 | 42.05804 | 13.28983 | 16606 ft | 299 kts | 240° |
| 2026-05-04 12:33 | 42.04802 | 13.26540 | 16261 ft | 297 kts | 240° |
| 2026-05-04 12:33 | 42.03806 | 13.24110 | 15929 ft | 296 kts | 240° |
| 2026-05-04 12:33 | 42.02811 | 13.21685 | 15607 ft | 295 kts | 240° |
| 2026-05-04 12:34 | 42.01828 | 13.19294 | 15449 ft | 289 kts | 240° |
| 2026-05-04 12:34 | 42.00856 | 13.16934 | 15071 ft | 288 kts | 239° |
| 2026-05-04 12:34 | 41.99960 | 13.14515 | 14604 ft | 295 kts | 252° |
| 2026-05-04 12:34 | 41.99752 | 13.11752 | 14269 ft | 302 kts | 272° |
| 2026-05-04 12:35 | 42.00120 | 13.08949 | 13888 ft | 304 kts | 280° |
| 2026-05-04 12:35 | 42.00601 | 13.06205 | 13521 ft | 306 kts | 281° |
| 2026-05-04 12:35 | 42.01092 | 13.03417 | 13104 ft | 306 kts | 281° |
| 2026-05-04 12:35 | 42.01563 | 13.00638 | 12738 ft | 304 kts | 280° |
| 2026-05-04 12:36 | 42.02019 | 12.97857 | 12248 ft | 304 kts | 280° |
| 2026-05-04 12:36 | 42.02465 | 12.95106 | 11747 ft | 299 kts | 280° |
| 2026-05-04 12:36 | 42.02902 | 12.92386 | 11280 ft | 296 kts | 280° |
| 2026-05-04 12:36 | 42.03358 | 12.89692 | 10787 ft | 295 kts | 281° |
| 2026-05-04 12:37 | 42.03834 | 12.87014 | 10306 ft | 293 kts | 282° |
| 2026-05-04 12:37 | 42.04148 | 12.85263 | 9986 ft | 291 kts | 282° |
| 2026-05-04 12:37 | 42.04618 | 12.82626 | 9464 ft | 289 kts | 282° |
| 2026-05-04 12:37 | 42.05083 | 12.79994 | 8961 ft | 289 kts | 281° |
| 2026-05-04 12:38 | 42.05548 | 12.77366 | 8466 ft | 288 kts | 281° |
| 2026-05-04 12:38 | 42.06010 | 12.74748 | 7948 ft | 287 kts | 281° |
| 2026-05-04 12:38 | 42.06468 | 12.72143 | 7454 ft | 285 kts | 281° |
| 2026-05-04 12:38 | 42.06922 | 12.69552 | 6984 ft | 283 kts | 281° |
| 2026-05-04 12:39 | 42.07374 | 12.66975 | 6485 ft | 282 kts | 281° |
| 2026-05-04 12:39 | 42.07821 | 12.64413 | 5973 ft | 280 kts | 281° |
| 2026-05-04 12:39 | 42.08265 | 12.61872 | 5462 ft | 278 kts | 281° |
| 2026-05-04 12:39 | 42.08701 | 12.59363 | 5180 ft | 270 kts | 281° |
| 2026-05-04 12:40 | 42.09123 | 12.56944 | 4950 ft | 260 kts | 280° |
| 2026-05-04 12:40 | 42.09195 | 12.54622 | 4808 ft | 242 kts | 252° |
| 2026-05-04 12:40 | 42.08721 | 12.53136 | 4732 ft | 234 kts | 232° |
| 2026-05-04 12:40 | 42.07603 | 12.51552 | 4637 ft | 228 kts | 213° |
| 2026-05-04 12:41 | 42.06215 | 12.50609 | 4483 ft | 227 kts | 199° |
| 2026-05-04 12:41 | 42.04726 | 12.49876 | 4286 ft | 228 kts | 198° |
| 2026-05-04 12:41 | 42.03231 | 12.49160 | 4050 ft | 229 kts | 198° |
| 2026-05-04 12:41 | 42.01732 | 12.48435 | 3820 ft | 226 kts | 199° |
| 2026-05-04 12:42 | 42.00272 | 12.47719 | 3559 ft | 222 kts | 199° |
| 2026-05-04 12:42 | 41.98805 | 12.47195 | 3248 ft | 217 kts | 179° |
| 2026-05-04 12:42 | 41.97405 | 12.47752 | 3153 ft | 202 kts | 155° |
| 2026-05-04 12:42 | 41.96124 | 12.48451 | 2998 ft | 193 kts | 159° |
| 2026-05-04 12:43 | 41.94930 | 12.49137 | 3013 ft | 186 kts | 156° |
| 2026-05-04 12:43 | 41.93796 | 12.49891 | 2977 ft | 178 kts | 154° |
| 2026-05-04 12:43 | 41.92699 | 12.50662 | 2992 ft | 179 kts | 153° |
| 2026-05-04 12:43 | 41.91552 | 12.51455 | 2748 ft | 187 kts | 155° |
| 2026-05-04 12:44 | 41.90390 | 12.52247 | 2492 ft | 185 kts | 154° |
| 2026-05-04 12:44 | 41.89264 | 12.53025 | 2238 ft | 179 kts | 154° |
| 2026-05-04 12:44 | 41.88181 | 12.53777 | 2002 ft | 170 kts | 154° |
| 2026-05-04 12:44 | 41.87160 | 12.54481 | 1790 ft | 158 kts | 154° |
| 2026-05-04 12:45 | 41.86293 | 12.55083 | 1618 ft | 137 kts | 155° |
| 2026-05-04 12:45 | 41.85479 | 12.55646 | 1419 ft | 128 kts | 155° |
| 2026-05-04 12:45 | 41.84681 | 12.56197 | 1239 ft | 129 kts | 155° |
| 2026-05-04 12:45 | 41.83889 | 12.56750 | 1056 ft | 131 kts | 155° |
| 2026-05-04 12:46 | 41.83071 | 12.57320 | 874 ft | 134 kts | 157° |
| 2026-05-04 12:46 | 41.82238 | 12.57890 | 698 ft | 134 kts | 156° |
| 2026-05-04 12:46 | 41.81423 | 12.58456 | 571 ft | 130 kts | 156° |
| 2026-05-04 12:46 | 41.80644 | 12.58997 | 432 ft | 128 kts | 156° |
| 2026-05-04 12:47 | 41.79932 | 12.59485 | 416 ft | 94 kts | 152° |
| 2026-05-04 12:47 | 41.79519 | 12.59770 | 412 ft | 55 kts | 152° |
| 2026-05-04 12:47 | 41.79270 | 12.59943 | 416 ft | 30 kts | 152° |
| 2026-05-04 12:47 | 41.79108 | 12.60054 | 413 ft | 18 kts | 155° |
| 2026-05-04 12:48 | 41.79024 | 12.59951 | 407 ft | 18 kts | 256° |
| 2026-05-04 12:48 | 41.79096 | 12.59860 | 406 ft | 15 kts | 333° |
| 2026-05-04 12:48 | 41.79197 | 12.59790 | 404 ft | 19 kts | 333° |
| 2026-05-04 12:48 | 41.79329 | 12.59702 | 406 ft | 23 kts | 333° |
| 2026-05-04 12:49 | 41.79469 | 12.59602 | 406 ft | 22 kts | 333° |
| 2026-05-04 12:49 | 41.79607 | 12.59507 | 406 ft | 22 kts | 334° |
| 2026-05-04 12:49 | 41.79741 | 12.59417 | 403 ft | 21 kts | 333° |
| 2026-05-04 12:49 | 41.79870 | 12.59328 | 403 ft | 21 kts | 332° |
| 2026-05-04 12:50 | 41.79995 | 12.59240 | 406 ft | 20 kts | 333° |
| 2026-05-04 12:50 | 41.80117 | 12.59157 | 406 ft | 19 kts | 333° |
| 2026-05-04 12:50 | 41.80177 | 12.59080 | 405 ft | 7 kts | 254° |
| 2026-05-04 12:50 | 41.80149 | 12.59025 | 405 ft | 7 kts | 231° |
| 2026-05-04 12:51 | 41.80116 | 12.58977 | 405 ft | 7 kts | 209° |
| 2026-05-04 12:51 | 41.80078 | 12.59003 | 405 ft | 3 kts | 127° |
| 2026-05-04 12:51 | 41.80070 | 12.59020 | 405 ft | 2 kts | 124° |
| 2026-05-04 12:51 | 41.80068 | 12.59024 | 405 ft | 0 kts | 123° |